createdAt,value
2023-03-26T00:00:57.633Z,84.44
2023-03-26T00:01:57.683Z,83.51
2023-03-26T00:02:57.658Z,83.31
2023-03-26T00:03:57.634Z,83.55
2023-03-26T00:04:57.636Z,83.61
2023-03-26T00:05:57.627Z,83.34
2023-03-26T00:06:57.570Z,83.55
2023-03-26T00:07:57.550Z,83.04
2023-03-26T00:08:57.545Z,83.04
2023-03-26T00:09:57.549Z,83.45
2023-03-26T00:10:58.079Z,83.65
2023-03-26T00:11:57.516Z,83.55
2023-03-26T00:12:57.508Z,83.55
2023-03-26T00:13:57.494Z,83.55
2023-03-26T00:14:57.489Z,83.14
2023-03-26T00:15:57.472Z,83.34
2023-03-26T00:16:57.529Z,83.00
2023-03-26T00:17:57.602Z,83.20
2023-03-26T00:18:57.445Z,82.49
2023-03-26T00:19:57.422Z,81.98
2023-03-26T00:20:57.425Z,82.18
2023-03-26T00:21:57.404Z,82.22
2023-03-26T00:22:57.435Z,82.59
2023-03-26T00:23:57.379Z,82.49
2023-03-26T00:24:57.373Z,82.28
2023-03-26T00:25:57.361Z,82.28
2023-03-26T00:26:57.392Z,81.87
2023-03-26T00:27:57.339Z,81.98
2023-03-26T00:28:57.372Z,81.77
2023-03-26T00:29:57.317Z,81.77
2023-03-26T00:30:57.383Z,81.57
2023-03-26T00:31:57.341Z,81.77
2023-03-26T00:32:57.320Z,81.73
2023-03-26T00:33:57.292Z,81.01
2023-03-26T00:34:57.279Z,80.71
2023-03-26T00:35:57.432Z,80.44
2023-03-26T00:36:57.251Z,81.12
2023-03-26T00:37:57.265Z,80.51
2023-03-26T00:38:57.243Z,80.81
2023-03-26T00:39:57.216Z,80.33
2023-03-26T00:40:57.206Z,80.85
2023-03-26T00:41:57.194Z,80.95
2023-03-26T00:42:57.219Z,80.85
2023-03-26T00:43:57.175Z,81.36
2023-03-26T00:44:57.168Z,80.64
2023-03-26T00:45:57.440Z,80.95
2023-03-26T00:46:57.146Z,81.05
2023-03-26T00:47:57.175Z,80.74
2023-03-26T00:48:57.158Z,80.44
2023-03-26T00:49:57.131Z,80.95
2023-03-26T00:50:57.101Z,81.15
2023-03-26T00:51:57.088Z,80.85
2023-03-26T00:52:57.103Z,80.44
2023-03-26T00:53:57.121Z,80.33
2023-03-26T00:54:57.054Z,80.44
2023-03-26T00:55:57.043Z,80.33
2023-03-26T00:56:57.182Z,80.54
2023-03-26T00:57:57.026Z,80.85
2023-03-26T00:58:57.010Z,80.85
2023-03-26T00:59:57.027Z,81.05
2023-03-26T01:00:56.990Z,81.26
2023-03-26T01:01:57.007Z,80.85
2023-03-26T01:02:57.172Z,80.68
2023-03-26T01:04:05.281Z,81.71
2023-03-26T01:04:57.974Z,81.29
2023-03-26T01:05:56.987Z,81.40
2023-03-26T01:06:56.936Z,82.12
2023-03-26T01:07:56.920Z,82.01
2023-03-26T01:08:56.931Z,82.15
2023-03-26T01:09:56.910Z,82.12
2023-03-26T01:10:56.882Z,82.12
2023-03-26T01:11:56.872Z,81.91
2023-03-26T01:12:56.863Z,82.22
2023-03-26T01:13:56.857Z,82.22
2023-03-26T01:14:56.852Z,82.53
2023-03-26T01:15:57.142Z,82.63
2023-03-26T01:16:56.819Z,82.42
2023-03-26T01:17:56.813Z,82.53
2023-03-26T01:18:56.801Z,83.45
2023-03-26T01:19:56.804Z,83.34
2023-03-26T01:20:56.775Z,82.93
2023-03-26T01:21:56.785Z,83.76
2023-03-26T01:22:56.757Z,85.30
2023-03-26T01:23:56.746Z,87.18
2023-03-26T01:24:56.983Z,87.14
2023-03-26T01:25:56.839Z,86.52
2023-03-26T01:26:56.719Z,87.24
2023-03-26T01:27:56.703Z,87.28
2023-03-26T01:28:56.714Z,86.87
2023-03-26T01:29:56.718Z,87.70
2023-03-26T01:30:56.670Z,87.08
2023-03-26T01:31:56.662Z,87.18
2023-03-26T01:32:56.705Z,87.08
2023-03-26T01:33:56.645Z,87.18
2023-03-26T01:34:56.648Z,87.59
2023-03-26T01:35:56.830Z,87.38
2023-03-26T01:36:56.604Z,88.51
2023-03-26T01:37:56.618Z,87.59
2023-03-26T01:38:56.588Z,86.98
2023-03-26T01:39:56.566Z,87.73
2023-03-26T01:40:56.574Z,88.41
2023-03-26T01:41:56.543Z,88.41
2023-03-26T01:42:56.537Z,87.79
2023-03-26T01:43:56.546Z,87.79
2023-03-26T01:44:56.520Z,88.00
2023-03-26T01:45:56.758Z,88.10
2023-03-26T01:46:56.541Z,88.00
2023-03-26T01:47:56.539Z,87.49
2023-03-26T01:48:56.491Z,87.28
2023-03-26T01:49:56.471Z,86.87
2023-03-26T01:50:56.509Z,87.22
2023-03-26T01:51:56.447Z,86.91
2023-03-26T01:52:56.431Z,87.22
2023-03-26T01:53:56.442Z,87.32
2023-03-26T01:54:56.418Z,87.63
2023-03-26T01:55:56.692Z,86.91
2023-03-26T01:56:56.423Z,87.22
2023-03-26T01:57:56.380Z,87.32
2023-03-26T01:58:56.382Z,87.18
2023-03-26T01:59:56.358Z,86.81
2023-03-26T02:00:56.342Z,86.81
2023-03-26T02:01:56.392Z,87.84
2023-03-26T02:02:56.523Z,87.32
2023-03-26T02:03:56.318Z,86.98
2023-03-26T02:04:56.334Z,86.77
2023-03-26T02:05:56.538Z,86.98
2023-03-26T02:06:56.317Z,86.46
2023-03-26T02:07:56.265Z,86.98
2023-03-26T02:08:56.269Z,86.09
2023-03-26T02:09:56.257Z,87.02
2023-03-26T02:10:56.241Z,86.60
2023-03-26T02:11:56.227Z,86.46
2023-03-26T02:12:56.220Z,85.85
2023-03-26T02:13:56.225Z,85.27
2023-03-26T02:14:56.196Z,86.09
2023-03-26T02:15:56.471Z,86.15
2023-03-26T02:16:56.175Z,85.95
2023-03-26T02:17:56.191Z,86.19
2023-03-26T02:18:56.184Z,86.15
2023-03-26T02:19:56.139Z,85.54
2023-03-26T02:20:56.128Z,86.05
2023-03-26T02:21:56.135Z,85.33
2023-03-26T02:22:56.108Z,85.74
2023-03-26T02:23:56.098Z,85.74
2023-03-26T02:24:56.088Z,85.64
2023-03-26T02:25:56.365Z,85.74
2023-03-26T02:26:56.061Z,85.64
2023-03-26T02:27:56.056Z,85.03
2023-03-26T02:28:56.038Z,85.64
2023-03-26T02:29:56.029Z,84.72
2023-03-26T02:30:56.022Z,85.33
2023-03-26T02:31:56.046Z,85.23
2023-03-26T02:32:56.017Z,85.33
2023-03-26T02:33:55.998Z,85.03
2023-03-26T02:34:55.968Z,85.54
2023-03-26T02:35:56.232Z,85.13
2023-03-26T02:36:55.949Z,85.74
2023-03-26T02:37:55.957Z,85.33
2023-03-26T02:38:55.939Z,85.33
2023-03-26T02:39:55.932Z,85.64
2023-03-26T02:40:55.903Z,85.06
2023-03-26T02:41:55.948Z,85.23
2023-03-26T02:42:55.909Z,85.17
2023-03-26T02:43:55.881Z,85.89
2023-03-26T02:44:55.866Z,86.09
2023-03-26T02:45:56.269Z,85.74
2023-03-26T02:46:55.860Z,85.74
2023-03-26T02:47:55.851Z,85.64
2023-03-26T02:48:55.830Z,85.06
2023-03-26T02:49:55.815Z,85.33
2023-03-26T02:50:55.800Z,85.68
2023-03-26T02:51:55.786Z,85.47
2023-03-26T02:52:55.798Z,85.95
2023-03-26T02:53:55.807Z,85.68
2023-03-26T02:54:55.764Z,85.95
2023-03-26T02:55:55.963Z,85.95
2023-03-26T02:56:55.753Z,85.85
2023-03-26T02:57:55.759Z,86.05
2023-03-26T02:58:55.725Z,85.74
2023-03-26T02:59:55.709Z,85.13
2023-03-26T03:00:55.733Z,85.23
2023-03-26T03:01:55.710Z,85.33
2023-03-26T03:02:55.736Z,85.23
2023-03-26T03:03:55.655Z,84.31
2023-03-26T03:04:55.647Z,84.52
2023-03-26T03:05:56.081Z,84.52
2023-03-26T03:06:55.620Z,85.44
2023-03-26T03:07:55.635Z,85.23
2023-03-26T03:08:55.627Z,85.54
2023-03-26T03:09:55.607Z,85.23
2023-03-26T03:10:55.584Z,85.33
2023-03-26T03:11:55.584Z,85.68
2023-03-26T03:12:55.576Z,85.38
2023-03-26T03:13:55.565Z,85.23
2023-03-26T03:14:55.535Z,85.74
2023-03-26T03:15:55.663Z,85.74
2023-03-26T03:16:55.564Z,85.85
2023-03-26T03:17:55.580Z,85.33
2023-03-26T03:18:56.926Z,85.03
2023-03-26T03:19:55.491Z,85.33
2023-03-26T03:20:55.481Z,85.23
2023-03-26T03:21:55.466Z,84.82
2023-03-26T03:22:55.464Z,85.23
2023-03-26T03:23:55.451Z,85.44
2023-03-26T03:24:55.463Z,85.13
2023-03-26T03:25:55.536Z,85.33
2023-03-26T03:26:55.434Z,85.44
2023-03-26T03:27:55.406Z,85.74
2023-03-26T03:28:55.402Z,85.64
2023-03-26T03:29:55.397Z,86.15
2023-03-26T03:30:55.377Z,85.74
2023-03-26T03:31:55.384Z,85.03
2023-03-26T03:32:55.400Z,85.33
2023-03-26T03:33:55.336Z,85.30
2023-03-26T03:34:55.344Z,85.80
2023-03-26T03:35:55.585Z,85.33
2023-03-26T03:36:55.325Z,85.03
2023-03-26T03:37:55.304Z,85.23
2023-03-26T03:38:55.293Z,85.33
2023-03-26T03:39:55.274Z,85.44
2023-03-26T03:40:55.273Z,85.30
2023-03-26T03:41:55.256Z,85.13
2023-03-26T03:42:55.265Z,85.64
2023-03-26T03:43:55.240Z,85.44
2023-03-26T03:44:55.229Z,84.61
2023-03-26T03:45:55.470Z,85.17
2023-03-26T03:46:55.205Z,85.47
2023-03-26T03:47:55.251Z,85.27
2023-03-26T03:48:55.218Z,85.58
2023-03-26T03:49:55.164Z,85.68
2023-03-26T03:50:55.152Z,85.27
2023-03-26T03:51:55.143Z,85.17
2023-03-26T03:52:55.138Z,84.66
2023-03-26T03:53:55.141Z,85.38
2023-03-26T03:54:55.113Z,85.47
2023-03-26T03:55:55.350Z,85.54
2023-03-26T03:56:55.130Z,84.92
2023-03-26T03:57:55.081Z,84.55
2023-03-26T03:58:55.084Z,84.20
2023-03-26T03:59:55.065Z,84.82
2023-03-26T04:00:55.069Z,84.31
2023-03-26T04:01:55.062Z,84.00
2023-03-26T04:02:55.072Z,84.00
2023-03-26T04:03:55.132Z,84.31
2023-03-26T04:04:55.007Z,84.20
2023-03-26T04:05:55.390Z,84.41
2023-03-26T04:06:54.979Z,84.41
2023-03-26T04:07:54.988Z,84.52
2023-03-26T04:08:54.969Z,84.61
2023-03-26T04:09:54.984Z,84.52
2023-03-26T04:10:54.963Z,84.41
2023-03-26T04:11:54.938Z,84.34
2023-03-26T04:12:54.929Z,84.76
2023-03-26T04:13:54.904Z,84.86
2023-03-26T04:14:54.909Z,85.47
2023-03-26T04:15:55.273Z,85.47
2023-03-26T04:16:54.873Z,85.27
2023-03-26T04:17:54.923Z,85.27
2023-03-26T04:18:54.849Z,85.17
2023-03-26T04:19:54.966Z,85.23
2023-03-26T04:20:54.845Z,85.58
2023-03-26T04:21:54.825Z,86.09
2023-03-26T04:22:54.820Z,85.33
2023-03-26T04:23:54.792Z,85.74
2023-03-26T04:24:54.819Z,85.44
2023-03-26T04:25:55.044Z,85.74
2023-03-26T04:26:54.767Z,85.03
2023-03-26T04:27:54.753Z,85.64
2023-03-26T04:28:54.753Z,85.95
2023-03-26T04:29:54.743Z,85.64
2023-03-26T04:30:54.735Z,85.89
2023-03-26T04:31:54.848Z,85.99
2023-03-26T04:32:54.762Z,86.71
2023-03-26T04:33:54.713Z,86.65
2023-03-26T04:34:54.684Z,86.91
2023-03-26T04:35:54.963Z,87.05
2023-03-26T04:36:54.997Z,87.16
2023-03-26T04:37:54.648Z,87.37
2023-03-26T04:38:54.641Z,87.22
2023-03-26T04:39:54.622Z,87.22
2023-03-26T04:40:54.618Z,87.02
2023-03-26T04:41:54.642Z,86.71
2023-03-26T04:42:54.631Z,86.91
2023-03-26T04:43:54.588Z,86.71
2023-03-26T04:44:54.584Z,86.50
2023-03-26T04:45:54.852Z,85.78
2023-03-26T04:46:54.604Z,85.78
2023-03-26T04:47:54.579Z,85.52
2023-03-26T04:48:54.523Z,85.06
2023-03-26T04:49:54.529Z,85.06
2023-03-26T04:50:54.513Z,85.27
2023-03-26T04:51:54.499Z,85.17
2023-03-26T04:52:54.500Z,85.27
2023-03-26T04:53:54.487Z,85.38
2023-03-26T04:54:54.467Z,85.27
2023-03-26T04:55:54.631Z,85.27
2023-03-26T04:56:54.488Z,84.45
2023-03-26T04:57:54.448Z,84.45
2023-03-26T04:58:54.417Z,84.55
2023-03-26T04:59:54.420Z,84.90
2023-03-26T05:00:54.429Z,85.27
2023-03-26T05:01:54.384Z,85.31
2023-03-26T05:02:54.455Z,84.86
2023-03-26T05:03:54.387Z,84.66
2023-03-26T05:04:54.361Z,84.49
2023-03-26T05:05:54.547Z,84.45
2023-03-26T05:06:54.338Z,84.45
2023-03-26T05:07:54.347Z,84.14
2023-03-26T05:08:54.312Z,84.49
2023-03-26T05:09:54.313Z,84.76
2023-03-26T05:10:54.451Z,84.55
2023-03-26T05:11:54.273Z,85.06
2023-03-26T05:12:54.268Z,85.27
2023-03-26T05:13:54.273Z,85.47
2023-03-26T05:14:54.238Z,85.47
2023-03-26T05:15:54.246Z,85.38
2023-03-26T05:16:54.240Z,85.38
2023-03-26T05:17:54.256Z,85.27
2023-03-26T05:18:54.230Z,85.38
2023-03-26T05:19:54.222Z,85.47
2023-03-26T05:20:54.487Z,85.27
2023-03-26T05:21:54.182Z,85.58
2023-03-26T05:22:54.166Z,85.47
2023-03-26T05:23:54.137Z,85.13
2023-03-26T05:24:54.130Z,85.54
2023-03-26T05:25:54.151Z,85.44
2023-03-26T05:26:54.117Z,85.33
2023-03-26T05:27:54.097Z,84.82
2023-03-26T05:28:54.089Z,84.61
2023-03-26T05:29:54.080Z,84.72
2023-03-26T05:30:54.283Z,84.52
2023-03-26T05:31:54.053Z,84.20
2023-03-26T05:32:54.132Z,84.00
2023-03-26T05:33:54.086Z,84.61
2023-03-26T05:34:54.023Z,84.20
2023-03-26T05:35:54.141Z,84.58
2023-03-26T05:36:54.037Z,84.10
2023-03-26T05:37:54.015Z,84.17
2023-03-26T05:38:53.994Z,84.10
2023-03-26T05:39:53.975Z,84.06
2023-03-26T05:40:54.082Z,84.31
2023-03-26T05:41:53.955Z,83.86
2023-03-26T05:42:53.961Z,83.55
2023-03-26T05:43:53.933Z,82.93
2023-03-26T05:44:53.919Z,83.25
2023-03-26T05:45:53.963Z,83.04
2023-03-26T05:46:53.897Z,83.34
2023-03-26T05:47:53.912Z,82.83
2023-03-26T05:48:53.900Z,83.45
2023-03-26T05:49:53.873Z,82.63
2023-03-26T05:50:54.078Z,83.45
2023-03-26T05:51:55.504Z,83.34
2023-03-26T05:52:53.839Z,82.32
2023-03-26T05:53:53.853Z,82.42
2023-03-26T05:54:53.808Z,82.73
2023-03-26T05:55:53.804Z,82.15
2023-03-26T05:56:53.830Z,82.87
2023-03-26T05:57:53.807Z,83.39
2023-03-26T05:58:53.770Z,83.18
2023-03-26T05:59:53.755Z,83.59
2023-03-26T06:00:53.997Z,83.80
2023-03-26T06:01:53.740Z,83.80
2023-03-26T06:02:53.803Z,83.07
2023-03-26T06:03:53.851Z,82.97
2023-03-26T06:04:53.789Z,82.87
2023-03-26T06:05:53.697Z,82.97
2023-03-26T06:06:53.678Z,83.39
2023-03-26T06:07:53.709Z,83.28
2023-03-26T06:09:01.561Z,83.39
2023-03-26T06:09:54.671Z,82.97
2023-03-26T06:10:53.957Z,82.87
2023-03-26T06:11:53.630Z,83.28
2023-03-26T06:12:53.616Z,82.97
2023-03-26T06:13:53.658Z,82.56
2023-03-26T06:14:53.615Z,82.87
2023-03-26T06:15:53.627Z,82.26
2023-03-26T06:16:53.568Z,83.49
2023-03-26T06:17:53.572Z,83.25
2023-03-26T06:18:56.641Z,83.49
2023-03-26T06:19:53.561Z,83.14
2023-03-26T06:20:53.823Z,82.53
2023-03-26T06:21:53.523Z,82.12
2023-03-26T06:22:53.530Z,82.83
2023-03-26T06:23:53.496Z,82.22
2023-03-26T06:24:53.521Z,82.69
2023-03-26T06:25:53.491Z,82.18
2023-03-26T06:26:53.459Z,82.18
2023-03-26T06:27:53.450Z,82.08
2023-03-26T06:28:53.461Z,81.87
2023-03-26T06:29:53.443Z,81.46
2023-03-26T06:30:53.782Z,81.15
2023-03-26T06:31:53.410Z,82.04
2023-03-26T06:32:53.434Z,80.71
2023-03-26T06:33:53.386Z,80.74
2023-03-26T06:34:53.393Z,80.74
2023-03-26T06:35:53.445Z,80.85
2023-03-26T06:36:53.360Z,80.54
2023-03-26T06:37:53.343Z,80.81
2023-03-26T06:38:53.355Z,80.85
2023-03-26T06:39:53.334Z,80.60
2023-03-26T06:40:53.485Z,80.19
2023-03-26T06:41:53.349Z,80.40
2023-03-26T06:43:08.557Z,80.60
2023-03-26T06:43:54.290Z,80.60
2023-03-26T06:44:53.270Z,80.51
2023-03-26T06:45:53.270Z,80.19
2023-03-26T06:46:53.282Z,80.30
2023-03-26T06:47:53.285Z,80.60
2023-03-26T06:48:53.234Z,79.89
2023-03-26T06:49:53.231Z,80.74
2023-03-26T06:50:53.439Z,80.71
2023-03-26T06:51:53.226Z,80.91
2023-03-26T06:52:53.191Z,81.01
2023-03-26T06:53:53.180Z,80.26
2023-03-26T06:54:53.162Z,79.44
2023-03-26T06:55:53.159Z,79.13
2023-03-26T06:56:53.200Z,78.63
2023-03-26T06:57:53.191Z,78.28
2023-03-26T06:58:53.129Z,78.79
2023-03-26T06:59:53.116Z,78.42
2023-03-26T07:00:53.413Z,77.97
2023-03-26T07:01:53.111Z,78.28
2023-03-26T07:02:53.251Z,77.46
2023-03-26T07:03:53.109Z,77.01
2023-03-26T07:04:53.061Z,77.32
2023-03-26T07:05:53.041Z,76.40
2023-03-26T07:06:53.038Z,76.61
2023-03-26T07:07:53.021Z,76.40
2023-03-26T07:08:53.012Z,75.59
2023-03-26T07:09:53.025Z,76.30
2023-03-26T07:10:53.357Z,76.50
2023-03-26T07:11:52.984Z,76.50
2023-03-26T07:12:52.976Z,76.09
2023-03-26T07:13:52.978Z,75.48
2023-03-26T07:14:52.970Z,75.48
2023-03-26T07:15:52.944Z,76.09
2023-03-26T07:16:52.973Z,75.52
2023-03-26T07:17:53.077Z,75.93
2023-03-26T07:18:52.904Z,76.50
2023-03-26T07:19:52.919Z,77.12
2023-03-26T07:20:53.384Z,76.88
2023-03-26T07:21:52.879Z,76.88
2023-03-26T07:22:52.886Z,75.92
2023-03-26T07:23:54.005Z,75.31
2023-03-26T07:24:52.843Z,74.63
2023-03-26T07:25:52.857Z,74.73
2023-03-26T07:26:52.824Z,75.24
2023-03-26T07:27:52.818Z,75.51
2023-03-26T07:29:03.852Z,75.31
2023-03-26T07:29:53.817Z,75.71
2023-03-26T07:30:53.055Z,74.90
2023-03-26T07:31:52.800Z,75.00
2023-03-26T07:32:52.801Z,74.18
2023-03-26T07:33:52.769Z,73.47
2023-03-26T07:34:52.741Z,72.75
2023-03-26T07:35:52.770Z,73.47
2023-03-26T07:36:52.720Z,72.45
2023-03-26T07:37:52.720Z,74.02
2023-03-26T07:38:52.716Z,74.52
2023-03-26T07:39:52.684Z,72.99
2023-03-26T07:40:52.925Z,73.36
2023-03-26T07:41:52.664Z,73.68
2023-03-26T07:42:52.684Z,75.62
2023-03-26T07:43:52.646Z,73.36
2023-03-26T07:44:52.628Z,73.36
2023-03-26T07:45:52.656Z,72.45
2023-03-26T07:46:52.608Z,72.55
2023-03-26T07:47:52.608Z,71.94
2023-03-26T07:48:52.613Z,72.24
2023-03-26T07:49:52.571Z,71.83
2023-03-26T07:50:52.817Z,72.14
2023-03-26T07:51:52.592Z,71.83
2023-03-26T07:52:52.584Z,73.50
2023-03-26T07:53:52.566Z,73.71
2023-03-26T07:54:52.558Z,73.81
2023-03-26T07:55:52.541Z,73.81
2023-03-26T07:56:55.827Z,74.11
2023-03-26T07:57:53.497Z,75.31
2023-03-26T07:58:52.485Z,73.71
2023-03-26T07:59:52.502Z,73.71
2023-03-26T08:00:52.624Z,72.69
2023-03-26T08:01:52.620Z,73.74
2023-03-26T08:02:52.508Z,73.64
2023-03-26T08:03:52.502Z,74.26
2023-03-26T08:04:52.499Z,74.05
2023-03-26T08:05:52.408Z,74.15
2023-03-26T08:06:52.386Z,74.60
2023-03-26T08:07:52.399Z,75.38
2023-03-26T08:08:52.364Z,75.48
2023-03-26T08:09:52.362Z,74.46
2023-03-26T08:10:52.619Z,74.35
2023-03-26T08:11:52.339Z,74.15
2023-03-26T08:12:52.352Z,73.88
2023-03-26T08:13:55.921Z,74.19
2023-03-26T08:14:52.301Z,74.49
2023-03-26T08:15:52.314Z,74.84
2023-03-26T08:16:52.283Z,75.31
2023-03-26T08:17:52.347Z,75.14
2023-03-26T08:18:52.256Z,75.82
2023-03-26T08:19:52.254Z,75.82
2023-03-26T08:20:52.353Z,75.42
2023-03-26T08:21:52.232Z,74.60
2023-03-26T08:22:52.222Z,74.49
2023-03-26T08:23:52.230Z,74.19
2023-03-26T08:24:52.200Z,74.49
2023-03-26T08:25:52.177Z,74.15
2023-03-26T08:26:52.171Z,73.68
2023-03-26T08:27:52.172Z,73.88
2023-03-26T08:28:52.148Z,74.39
2023-03-26T08:29:52.162Z,74.66
2023-03-26T08:30:52.193Z,74.05
2023-03-26T08:31:52.117Z,73.74
2023-03-26T08:32:52.139Z,74.05
2023-03-26T08:33:52.125Z,74.11
2023-03-26T08:34:52.092Z,74.02
2023-03-26T08:35:52.121Z,73.50
2023-03-26T08:36:52.070Z,72.89
2023-03-26T08:37:52.067Z,72.58
2023-03-26T08:38:52.041Z,72.48
2023-03-26T08:39:52.041Z,72.82
2023-03-26T08:40:52.028Z,73.74
2023-03-26T08:41:52.021Z,73.94
2023-03-26T08:42:51.996Z,74.46
2023-03-26T08:43:53.761Z,74.52
2023-03-26T08:44:52.001Z,73.30
2023-03-26T08:45:51.973Z,73.27
2023-03-26T08:46:52.028Z,73.68
2023-03-26T08:47:52.003Z,73.57
2023-03-26T08:48:51.946Z,73.10
2023-03-26T08:49:51.954Z,73.71
2023-03-26T08:50:51.946Z,73.03
2023-03-26T08:51:51.911Z,73.64
2023-03-26T08:52:51.900Z,74.05
2023-03-26T08:53:51.888Z,74.49
2023-03-26T08:54:51.869Z,75.42
2023-03-26T08:55:51.861Z,75.52
2023-03-26T08:56:51.901Z,75.52
2023-03-26T08:57:51.851Z,75.07
2023-03-26T08:58:51.833Z,75.01
2023-03-26T08:59:51.834Z,74.76
2023-03-26T09:00:51.924Z,74.15
2023-03-26T09:01:51.866Z,73.74
2023-03-26T09:02:51.836Z,74.32
2023-03-26T09:03:51.823Z,74.29
2023-03-26T09:04:51.763Z,73.98
2023-03-26T09:05:51.768Z,71.70
2023-03-26T09:06:51.757Z,72.31
2023-03-26T09:07:51.729Z,71.36
2023-03-26T09:08:53.813Z,71.77
2023-03-26T09:09:51.724Z,71.56
2023-03-26T09:10:51.720Z,70.61
2023-03-26T09:11:51.691Z,70.51
2023-03-26T09:12:51.688Z,70.51
2023-03-26T09:13:51.690Z,70.51
2023-03-26T09:14:51.657Z,70.61
2023-03-26T09:15:51.676Z,70.31
2023-03-26T09:16:51.630Z,70.40
2023-03-26T09:17:51.688Z,70.48
2023-03-26T09:18:51.611Z,69.69
2023-03-26T09:19:51.622Z,69.69
2023-03-26T09:20:51.605Z,70.31
2023-03-26T09:21:51.616Z,70.34
2023-03-26T09:22:51.576Z,70.54
2023-03-26T09:23:51.580Z,70.57
2023-03-26T09:24:51.569Z,71.01
2023-03-26T09:25:51.542Z,72.14
2023-03-26T09:26:51.526Z,71.73
2023-03-26T09:27:51.530Z,71.15
2023-03-26T09:28:51.509Z,70.84
2023-03-26T09:29:51.516Z,70.84
2023-03-26T09:30:51.484Z,70.75
2023-03-26T09:31:51.549Z,71.15
2023-03-26T09:32:51.556Z,70.95
2023-03-26T09:33:51.460Z,70.95
2023-03-26T09:34:51.457Z,71.12
2023-03-26T09:35:51.464Z,70.95
2023-03-26T09:36:51.425Z,70.84
2023-03-26T09:37:56.819Z,70.84
2023-03-26T09:38:52.389Z,71.90
2023-03-26T09:39:51.389Z,72.17
2023-03-26T09:40:52.877Z,72.28
2023-03-26T09:41:51.381Z,72.28
2023-03-26T09:42:51.363Z,72.58
2023-03-26T09:43:51.350Z,72.34
2023-03-26T09:44:51.329Z,71.73
2023-03-26T09:45:51.366Z,71.83
2023-03-26T09:46:51.309Z,71.94
2023-03-26T09:47:51.329Z,72.14
2023-03-26T09:48:51.290Z,72.41
2023-03-26T09:49:51.280Z,73.33
2023-03-26T09:50:51.285Z,73.44
2023-03-26T09:51:51.278Z,73.33
2023-03-26T09:52:51.256Z,73.98
2023-03-26T09:53:51.268Z,73.64
2023-03-26T09:54:51.240Z,74.15
2023-03-26T09:55:51.238Z,75.10
2023-03-26T09:56:51.268Z,75.07
2023-03-26T09:57:51.218Z,75.58
2023-03-26T09:58:51.183Z,75.51
2023-03-26T09:59:51.169Z,75.41
2023-03-26T10:00:51.220Z,75.41
2023-03-26T10:01:51.143Z,75.92
2023-03-26T10:02:51.170Z,75.71
2023-03-26T10:03:51.174Z,76.23
2023-03-26T10:04:51.199Z,76.33
2023-03-26T10:05:51.113Z,76.43
2023-03-26T10:06:51.101Z,76.43
2023-03-26T10:07:51.087Z,75.82
2023-03-26T10:08:51.075Z,75.89
2023-03-26T10:09:51.124Z,76.09
2023-03-26T10:10:51.051Z,75.68
2023-03-26T10:11:51.058Z,75.99
2023-03-26T10:12:51.035Z,75.37
2023-03-26T10:13:51.052Z,75.78
2023-03-26T10:14:51.021Z,75.78
2023-03-26T10:15:51.002Z,75.58
2023-03-26T10:16:51.023Z,75.27
2023-03-26T10:17:51.025Z,75.58
2023-03-26T10:18:50.972Z,75.34
2023-03-26T10:19:50.977Z,75.34
2023-03-26T10:20:50.953Z,75.24
2023-03-26T10:21:50.940Z,74.93
2023-03-26T10:22:50.930Z,75.13
2023-03-26T10:23:50.915Z,75.27
2023-03-26T10:24:50.927Z,74.97
2023-03-26T10:25:50.921Z,75.04
2023-03-26T10:27:08.649Z,75.24
2023-03-26T10:27:50.876Z,74.42
2023-03-26T10:28:50.860Z,74.42
2023-03-26T10:29:50.906Z,74.42
2023-03-26T10:30:50.869Z,74.01
2023-03-26T10:31:50.833Z,73.71
2023-03-26T10:32:50.859Z,74.01
2023-03-26T10:33:50.807Z,74.42
2023-03-26T10:34:50.820Z,74.93
2023-03-26T10:35:50.808Z,74.93
2023-03-26T10:36:50.773Z,74.32
2023-03-26T10:37:50.760Z,74.18
2023-03-26T10:38:50.765Z,75.31
2023-03-26T10:39:50.757Z,74.08
2023-03-26T10:40:50.752Z,74.18
2023-03-26T10:41:50.742Z,74.29
2023-03-26T10:42:50.709Z,73.77
2023-03-26T10:44:01.276Z,73.47
2023-03-26T10:44:51.689Z,73.13
2023-03-26T10:45:50.728Z,72.92
2023-03-26T10:46:50.693Z,72.41
2023-03-26T10:47:50.691Z,72.52
2023-03-26T10:48:50.650Z,72.11
2023-03-26T10:49:50.629Z,72.52
2023-03-26T10:50:50.643Z,72.31
2023-03-26T10:51:50.614Z,72.82
2023-03-26T10:52:50.603Z,73.23
2023-03-26T10:53:50.610Z,72.99
2023-03-26T10:54:50.574Z,72.58
2023-03-26T10:55:50.576Z,72.89
2023-03-26T10:56:50.603Z,73.30
2023-03-26T10:57:50.554Z,73.33
2023-03-26T10:58:50.671Z,73.30
2023-03-26T10:59:50.523Z,72.48
2023-03-26T11:00:50.510Z,72.28
2023-03-26T11:01:50.544Z,72.38
2023-03-26T11:02:50.568Z,71.77
2023-03-26T11:03:50.483Z,72.48
2023-03-26T11:04:50.504Z,72.48
2023-03-26T11:05:50.490Z,72.82
2023-03-26T11:06:50.456Z,72.48
2023-03-26T11:07:50.441Z,72.28
2023-03-26T11:08:50.463Z,72.48
2023-03-26T11:09:50.420Z,73.54
2023-03-26T11:10:50.412Z,73.10
2023-03-26T11:11:50.399Z,73.26
2023-03-26T11:12:50.386Z,71.73
2023-03-26T11:13:50.411Z,71.60
2023-03-26T11:14:50.379Z,71.06
2023-03-26T11:15:50.406Z,70.55
2023-03-26T11:16:50.350Z,70.45
2023-03-26T11:17:50.359Z,69.84
2023-03-26T11:18:50.316Z,69.70
2023-03-26T11:19:51.982Z,69.90
2023-03-26T11:20:50.292Z,69.70
2023-03-26T11:21:50.295Z,69.60
2023-03-26T11:22:50.285Z,69.46
2023-03-26T11:23:50.272Z,69.49
2023-03-26T11:24:50.256Z,69.16
2023-03-26T11:25:50.267Z,69.09
2023-03-26T11:26:50.237Z,68.58
2023-03-26T11:27:50.225Z,68.68
2023-03-26T11:29:05.116Z,68.55
2023-03-26T11:29:51.243Z,68.52
2023-03-26T11:30:50.208Z,68.32
2023-03-26T11:31:50.182Z,68.52
2023-03-26T11:32:50.175Z,67.60
2023-03-26T11:33:50.156Z,67.71
2023-03-26T11:34:50.156Z,67.71
2023-03-26T11:35:50.181Z,66.49
2023-03-26T11:36:50.129Z,66.69
2023-03-26T11:37:50.115Z,66.89
2023-03-26T11:38:50.113Z,67.10
2023-03-26T11:39:50.100Z,67.19
2023-03-26T11:40:50.119Z,66.89
2023-03-26T11:41:50.080Z,67.22
2023-03-26T11:42:50.067Z,66.92
2023-03-26T11:43:50.047Z,66.41
2023-03-26T11:44:50.050Z,66.41
2023-03-26T11:45:50.046Z,66.31
2023-03-26T11:46:50.159Z,66.58
2023-03-26T11:47:50.052Z,66.58
2023-03-26T11:48:50.010Z,66.49
2023-03-26T11:49:49.982Z,65.88
2023-03-26T11:50:49.987Z,66.38
2023-03-26T11:51:49.984Z,65.97
2023-03-26T11:52:49.955Z,65.57
2023-03-26T11:53:49.943Z,66.38
2023-03-26T11:54:49.931Z,66.89
2023-03-26T11:55:49.925Z,66.89
2023-03-26T11:57:04.939Z,67.10
2023-03-26T11:57:50.895Z,67.30
2023-03-26T11:58:49.890Z,67.71
2023-03-26T11:59:56.996Z,67.40
2023-03-26T12:00:50.859Z,66.89
2023-03-26T12:01:49.915Z,66.96
2023-03-26T12:02:49.879Z,66.18
2023-03-26T12:03:49.827Z,65.06
2023-03-26T12:04:49.852Z,63.94
2023-03-26T12:05:49.814Z,63.43
2023-03-26T12:06:49.802Z,63.81
2023-03-26T12:07:49.795Z,65.36
2023-03-26T12:08:49.772Z,65.44
2023-03-26T12:09:49.760Z,66.66
2023-03-26T12:10:49.748Z,65.84
2023-03-26T12:11:49.747Z,65.64
2023-03-26T12:12:49.728Z,65.44
2023-03-26T12:13:49.715Z,66.46
2023-03-26T12:14:49.702Z,66.55
2023-03-26T12:15:49.696Z,65.74
2023-03-26T12:16:50.882Z,66.35
2023-03-26T12:17:49.764Z,66.35
2023-03-26T12:18:49.664Z,65.91
2023-03-26T12:19:49.654Z,66.46
2023-03-26T12:20:49.640Z,66.15
2023-03-26T12:21:49.638Z,66.42
2023-03-26T12:22:49.650Z,66.52
2023-03-26T12:23:49.604Z,65.27
2023-03-26T12:24:49.599Z,65.27
2023-03-26T12:25:49.581Z,64.67
2023-03-26T12:26:49.590Z,65.17
2023-03-26T12:27:49.565Z,65.37
2023-03-26T12:28:49.576Z,65.58
2023-03-26T12:29:49.548Z,65.37
2023-03-26T12:30:49.556Z,65.07
2023-03-26T12:31:49.575Z,64.67
2023-03-26T12:32:49.528Z,65.07
2023-03-26T12:33:49.516Z,64.87
2023-03-26T12:34:49.499Z,64.67
2023-03-26T12:35:49.515Z,64.46
2023-03-26T12:36:49.466Z,64.56
2023-03-26T12:37:49.459Z,65.04
2023-03-26T12:40:06.010Z,64.36
2023-03-26T12:40:11.467Z,65.07
2023-03-26T12:40:50.436Z,63.85
2023-03-26T12:43:51.523Z,63.92
2023-03-26T12:44:46.166Z,59.16
2023-03-26T12:44:56.159Z,60.98
2023-03-26T12:44:59.178Z,58.95
2023-03-26T12:47:46.171Z,58.27
2023-03-26T12:47:56.195Z,58.88
2023-03-26T12:48:02.259Z,58.47
2023-03-26T12:48:50.432Z,58.47
2023-03-26T12:49:49.371Z,57.86
2023-03-26T12:50:49.352Z,58.40
2023-03-26T12:51:49.306Z,57.97
2023-03-26T12:52:49.313Z,58.88